| time (UTC) | temp C | wind direction | speed KPH | gust KPH | rain 1hr cm | rain 24hr cm | rain mn cm | humidity % | barometer mb |
| 20260505071500 | 6 | 115 | 8.0 | 9.7 | 0.00 | 0.00 | 0.00 | 94 | 1008.2 |
| 20260505071000 | 6 | 132 | 9.7 | 9.7 | 0.00 | 0.00 | 0.00 | 94 | 1008.2 |
| 20260505070500 | 6 | 129 | 9.7 | 9.7 | 0.00 | 0.00 | 0.00 | 94 | 1008.3 |
| 20260505070000 | 6 | 117 | 6.4 | 8.0 | 0.00 | 0.00 | 0.00 | 94 | 1008.1 |
| 20260505065500 | 6 | 116 | 6.4 | 8.0 | 0.00 | 0.00 | 0.00 | 94 | 1008.3 |
| 20260505065000 | 6 | 117 | 6.4 | 9.7 | 0.00 | 0.00 | 0.00 | 94 | 1008.3 |
| 20260505064500 | 6 | 123 | 9.7 | 11.3 | 0.00 | 0.00 | 0.00 | 94 | 1007.8 |
| 20260505064000 | 6 | 118 | 6.4 | 8.0 | 0.00 | 0.00 | 0.00 | 93 | 1008.0 |
| 20260505063515 | 6 | 78 | 6.4 | 8.0 | 0.00 | 0.00 | 0.00 | 93 | 1008.1 |
| 20260505063000 | 6 | 89 | 6.4 | 9.7 | 0.00 | 0.00 | 0.00 | 93 | 1008.0 |
| 20260505062500 | 6 | 79 | 9.7 | 11.3 | 0.00 | 0.00 | 0.00 | 92 | 1007.9 |
| 20260505062000 | 6 | 88 | 9.7 | 11.3 | 0.00 | 0.00 | 0.00 | 93 | 1007.9 |
| 20260505061500 | 6 | 80 | 11.3 | 14.5 | 0.00 | 0.00 | 0.00 | 92 | 1007.9 |
| 20260505061000 | 6 | 84 | 11.3 | 17.7 | 0.00 | 0.00 | 0.00 | 91 | 1007.8 |
| 20260505060500 | 6 | 88 | 9.7 | 11.3 | 0.00 | 0.00 | 0.00 | 92 | 1008.1 |
| 20260505060000 | 6 | 111 | 8.0 | 11.3 | 0.00 | 0.00 | 0.18 | 93 | 1007.8 |
| 20260505055500 | 6 | 117 | 9.7 | 14.5 | 0.00 | 0.00 | 0.18 | 93 | 1008.1 |
| 20260505055000 | 6 | 107 | 6.4 | 9.7 | 0.00 | 0.00 | 0.18 | 93 | 1008.4 |
| 20260505054500 | 6 | 96 | 6.4 | 8.0 | 0.00 | 0.00 | 0.18 | 93 | 1007.7 |
| 20260505054015 | 7 | 92 | 4.8 | 6.4 | 0.00 | 0.00 | 0.18 | 93 | 1007.8 |
| 20260505053500 | 7 | 95 | 4.8 | 6.4 | 0.00 | 0.00 | 0.15 | 92 | 1007.9 |
| 20260505053001 | 7 | 47 | 4.8 | 6.4 | 0.00 | 0.00 | 0.15 | 93 | 1008.3 |
| 20260505052501 | 7 | 21 | 8.0 | 8.0 | 0.00 | 0.00 | 0.15 | 93 | 1007.9 |
| 20260505052000 | 7 | 12 | 9.7 | 11.3 | 0.00 | 0.00 | 0.13 | 93 | 1008.3 |
| 20260505051500 | 7 | 11 | 6.4 | 9.7 | 0.00 | 0.00 | 0.13 | 92 | 1008.1 |
| 20260505051016 | 7 | 355 | 8.0 | 11.3 | 0.00 | 0.00 | 0.13 | 92 | 1008.1 |
| 20260505050501 | 7 | 347 | 8.0 | 11.3 | 0.00 | 0.00 | 0.13 | 92 | 1008.1 |
| 20260505041515 | 8 | 300 | 17.7 | 20.9 | 0.00 | 0.00 | 0.00 | 73 | 1006.5 |
| 20260505041016 | 9 | 284 | 9.7 | 16.1 | 0.00 | 0.00 | 0.00 | 67 | 1005.9 |
| 20260505040500 | 9 | 319 | 9.7 | 12.9 | 0.00 | 0.00 | 0.00 | 63 | 1005.4 |
| 20260505040000 | 9 | 312 | 1.6 | 8.0 | 0.00 | 0.00 | 0.00 | 63 | 1005.5 |
| 20260505035500 | 9 | 352 | 3.2 | 4.8 | 0.00 | 0.00 | 0.00 | 64 | 1005.4 |
| 20260505035000 | 9 | 344 | 0.0 | 3.2 | 0.00 | 0.00 | 0.00 | 63 | 1005.1 |
| 20260505034500 | 9 | 40 | 3.2 | 4.8 | 0.00 | 0.00 | 0.00 | 63 | 1005.1 |
| 20260505034001 | 9 | 55 | 3.2 | 4.8 | 0.00 | 0.00 | 0.00 | 63 | 1005.3 |
| 20260505033500 | 10 | 42 | 6.4 | 11.3 | 0.00 | 0.00 | 0.00 | 62 | 1005.0 |
| 20260505033000 | 10 | 44 | 4.8 | 11.3 | 0.00 | 0.00 | 0.00 | 61 | 1004.8 |
| 20260505032500 | 10 | 37 | 6.4 | 12.9 | 0.00 | 0.00 | 0.00 | 60 | 1004.7 |
| 20260505032000 | 10 | 39 | 8.0 | 16.1 | 0.00 | 0.00 | 0.00 | 60 | 1004.7 |
| 20260505031500 | 10 | 40 | 12.9 | 16.1 | 0.00 | 0.00 | 0.00 | 59 | 1004.8 |
| 20260505031002 | 10 | 48 | 9.7 | 17.7 | 0.00 | 0.00 | 0.00 | 58 | 1004.4 |
| 20260505030517 | 10 | 76 | 6.4 | 9.7 | 0.00 | 0.00 | 0.00 | 58 | 1004.3 |
| 20260505030015 | 10 | 92 | 8.0 | 8.0 | 0.00 | 0.00 | 0.00 | 59 | 1004.4 |
| 20260505025500 | 10 | 80 | 6.4 | 9.7 | 0.00 | 0.00 | 0.00 | 59 | 1004.4 |
| 20260505025002 | 10 | 77 | 6.4 | 11.3 | 0.00 | 0.00 | 0.00 | 59 | 1004.2 |
| 20260505024500 | 10 | 49 | 9.7 | 11.3 | 0.00 | 0.00 | 0.00 | 59 | 1004.2 |
| 20260505024000 | 10 | 41 | 6.4 | 11.3 | 0.00 | 0.00 | 0.00 | 59 | 1004.1 |
| 20260505023500 | 10 | 38 | 8.0 | 12.9 | 0.00 | 0.00 | 0.00 | 59 | 1004.1 |
| 20260505023002 | 10 | 26 | 4.8 | 4.8 | 0.00 | 0.00 | 0.00 | 60 | 1004.1 |
| 20260505022500 | 10 | 34 | 4.8 | 8.0 | 0.00 | 0.00 | 0.00 | 59 | 1004.0 |
| 20260505022000 | 10 | 44 | 9.7 | 16.1 | 0.00 | 0.00 | 0.00 | 59 | 1003.9 |
| 20260505021500 | 10 | 44 | 8.0 | 17.7 | 0.00 | 0.00 | 0.00 | 59 | 1003.9 |
| 20260505021000 | 10 | 34 | 11.3 | 19.3 | 0.00 | 0.00 | 0.00 | 59 | 1003.9 |
| 20260505020515 | 10 | 32 | 16.1 | 19.3 | 0.00 | 0.00 | 0.00 | 58 | 1004.2 |
| 20260505020000 | 10 | 31 | 22.5 | 24.1 | 0.00 | 0.00 | 0.00 | 58 | 1003.7 |
| 20260505015500 | 10 | 44 | 12.9 | 24.1 | 0.00 | 0.00 | 0.00 | 56 | 1003.4 |
| 20260505015002 | 11 | 19 | 19.3 | 29.0 | 0.00 | 0.00 | 0.00 | 54 | 1002.8 |
| 20260505014500 | 11 | 13 | 11.3 | 20.9 | 0.00 | 0.00 | 0.00 | 52 | 1002.5 |
| 20260505014000 | 11 | 3 | 14.5 | 20.9 | 0.00 | 0.00 | 0.00 | 51 | 1002.2 |
| 20260505013502 | 11 | 63 | 17.7 | 27.4 | 0.00 | 0.00 | 0.00 | 51 | 1002.5 |
| 20260505013000 | 11 | 52 | 17.7 | 27.4 | 0.00 | 0.00 | 0.00 | 52 | 1002.6 |
| 20260505012500 | 11 | 68 | 14.5 | 24.1 | 0.00 | 0.00 | 0.00 | 53 | 1002.5 |
| 20260505012015 | 11 | 28 | 19.3 | 27.4 | 0.00 | 0.00 | 0.00 | 49 | 1002.1 |
| 20260505011500 | 12 | 67 | 11.3 | 27.4 | 0.00 | 0.00 | 0.00 | 47 | 1001.8 |
| 20260505011000 | 12 | 15 | 25.7 | 35.4 | 0.00 | 0.00 | 0.00 | 45 | 1001.2 |
| 20260505010515 | 12 | 24 | 22.5 | 33.8 | 0.00 | 0.00 | 0.00 | 43 | 1001.2 |
| 20260505010000 | 12 | 353 | 27.4 | 41.8 | 0.00 | 0.00 | 0.00 | 43 | 1000.6 |
| 20260505005500 | 13 | 354 | 24.1 | 41.8 | 0.00 | 0.00 | 0.00 | 42 | 1000.3 |
| 20260505005015 | 13 | 352 | 30.6 | 35.4 | 0.00 | 0.00 | 0.00 | 39 | 999.9 |
| 20260505004500 | 13 | 19 | 24.1 | 30.6 | 0.00 | 0.00 | 0.00 | 37 | 999.6 |
| 20260505004015 | 13 | 31 | 16.1 | 29.0 | 0.00 | 0.00 | 0.00 | 36 | 999.3 |
| 20260505003515 | 13 | 21 | 20.9 | 27.4 | 0.00 | 0.00 | 0.00 | 36 | 999.1 |
| 20260505003015 | 13 | 50 | 17.7 | 27.4 | 0.00 | 0.00 | 0.00 | 35 | 999.8 |
| 20260505002500 | 14 | 16 | 27.4 | 33.8 | 0.00 | 0.00 | 0.00 | 35 | 999.2 |
| 20260505002000 | 14 | 29 | 17.7 | 30.6 | 0.00 | 0.00 | 0.00 | 36 | 998.9 |
| 20260505001502 | 14 | 29 | 19.3 | 27.4 | 0.00 | 0.00 | 0.00 | 35 | 999.0 |
| 20260505001000 | 14 | 12 | 20.9 | 29.0 | 0.00 | 0.00 | 0.00 | 35 | 998.7 |
| 20260505000500 | 14 | 40 | 16.1 | 25.7 | 0.00 | 0.00 | 0.00 | 34 | 998.6 |
| 20260505000000 | 14 | 37 | 16.1 | 17.7 | 0.00 | 0.00 | 0.00 | 34 | 999.0 |
| 20260504235500 | 14 | 356 | 17.7 | 22.5 | 0.00 | 0.00 | 0.00 | 34 | 998.9 |
| 20260504235000 | 14 | 340 | 30.6 | 38.6 | 0.00 | 0.00 | 0.00 | 33 | 998.6 |
| 20260504234500 | 14 | 344 | 16.1 | 33.8 | 0.00 | 0.00 | 0.00 | 33 | 998.6 |
| 20260504234000 | 15 | 3 | 20.9 | 27.4 | 0.00 | 0.00 | 0.00 | 34 | 998.6 |
| 20260504233500 | 15 | 15 | 30.6 | 41.8 | 0.00 | 0.00 | 0.00 | 33 | 998.4 |
| 20260504233000 | 15 | 12 | 22.5 | 37.0 | 0.00 | 0.00 | 0.00 | 32 | 998.0 |
| 20260504232500 | 15 | 8 | 17.7 | 40.2 | 0.00 | 0.00 | 0.00 | 31 | 998.4 |
| 20260504232000 | 15 | 2 | 16.1 | 30.6 | 0.00 | 0.00 | 0.00 | 34 | 997.9 |
| 20260504231500 | 15 | 23 | 29.0 | 38.6 | 0.00 | 0.00 | 0.00 | 31 | 998.1 |
| 20260504231000 | 14 | 24 | 27.4 | 51.5 | 0.00 | 0.00 | 0.00 | 34 | 997.9 |
| 20260504230515 | 15 | 23 | 33.8 | 49.9 | 0.00 | 0.00 | 0.00 | 34 | 997.8 |
| 20260504230002 | 15 | 22 | 27.4 | 48.3 | 0.00 | 0.00 | 0.00 | 33 | 997.7 |
| 20260504225517 | 15 | 11 | 29.0 | 41.8 | 0.00 | 0.00 | 0.00 | 34 | 997.4 |
| 20260504225000 | 15 | 29 | 29.0 | 49.9 | 0.00 | 0.00 | 0.00 | 33 | 997.7 |
| 20260504224500 | 15 | 0 | 32.2 | 45.1 | 0.00 | 0.00 | 0.00 | 32 | 997.2 |
| 20260504224000 | 15 | 18 | 37.0 | 54.7 | 0.00 | 0.00 | 0.00 | 31 | 996.8 |
| 20260504223500 | 16 | 20 | 30.6 | 37.0 | 0.00 | 0.00 | 0.00 | 28 | 996.0 |
| 20260504223000 | 17 | 57 | 19.3 | 27.4 | 0.00 | 0.00 | 0.00 | 23 | 995.3 |
| 20260504222502 | 17 | 55 | 11.3 | 33.8 | 0.00 | 0.00 | 0.00 | 23 | 995.2 |
| 20260504222001 | 17 | 22 | 16.1 | 29.0 | 0.00 | 0.00 | 0.00 | 24 | 995.2 |
| 20260504221500 | 17 | 38 | 25.7 | 35.4 | 0.00 | 0.00 | 0.00 | 24 | 995.9 |
| 20260504221000 | 17 | 21 | 8.0 | 19.3 | 0.00 | 0.00 | 0.00 | 24 | 995.3 |
| 20260504220500 | 17 | 357 | 14.5 | 27.4 | 0.00 | 0.00 | 0.00 | 25 | 995.1 |
| 20260504220000 | 17 | 31 | 14.5 | 32.2 | 0.00 | 0.00 | 0.00 | 25 | 995.6 |
| 20260504215500 | 17 | 44 | 19.3 | 25.7 | 0.00 | 0.00 | 0.00 | 24 | 994.9 |
| 20260504215000 | 17 | 1 | 27.4 | 40.2 | 0.00 | 0.00 | 0.00 | 25 | 995.2 |
| 20260504214501 | 17 | 16 | 17.7 | 38.6 | 0.00 | 0.00 | 0.00 | 25 | 995.2 |
| 20260504214000 | 17 | 13 | 27.4 | 40.2 | 0.00 | 0.00 | 0.00 | 24 | 994.6 |
| 20260504213500 | 17 | 66 | 14.5 | 30.6 | 0.00 | 0.00 | 0.00 | 22 | 994.7 |
| 20260504213000 | 18 | 25 | 17.7 | 30.6 | 0.00 | 0.00 | 0.00 | 21 | 994.5 |
| 20260504212515 | 18 | 43 | 20.9 | 29.0 | 0.00 | 0.00 | 0.00 | 22 | 994.2 |
| 20260504212001 | 18 | 39 | 16.1 | 27.4 | 0.00 | 0.00 | 0.00 | 22 | 994.3 |
| 20260504211515 | 18 | 359 | 11.3 | 24.1 | 0.00 | 0.00 | 0.00 | 22 | 994.1 |
| 20260504211000 | 18 | 345 | 11.3 | 25.7 | 0.00 | 0.00 | 0.00 | 22 | 994.5 |
| 20260504210500 | 18 | 45 | 4.8 | 20.9 | 0.00 | 0.00 | 0.00 | 21 | 994.3 |
| 20260504210000 | 18 | 59 | 6.4 | 25.7 | 0.00 | 0.00 | 0.00 | 22 | 994.1 |
| 20260504205500 | 18 | 341 | 6.4 | 20.9 | 0.00 | 0.00 | 0.00 | 22 | 994.6 |
| 20260504205017 | 18 | 5 | 11.3 | 17.7 | 0.00 | 0.00 | 0.00 | 22 | 994.6 |
| 20260504204501 | 18 | 6 | 11.3 | 19.3 | 0.00 | 0.00 | 0.00 | 22 | 994.6 |
| 20260504204000 | 18 | 89 | 4.8 | 24.1 | 0.00 | 0.00 | 0.00 | 22 | 994.7 |
| 20260504203500 | 18 | 58 | 9.7 | 20.9 | 0.00 | 0.00 | 0.00 | 23 | 994.7 |
| 20260504203000 | 18 | 55 | 20.9 | 22.5 | 0.00 | 0.00 | 0.00 | 23 | 994.9 |
| 20260504202500 | 17 | 19 | 9.7 | 22.5 | 0.00 | 0.00 | 0.00 | 24 | 995.5 |
| 20260504202000 | 17 | 53 | 20.9 | 30.6 | 0.00 | 0.00 | 0.00 | 24 | 995.7 |
| 20260504201501 | 17 | 53 | 27.4 | 37.0 | 0.00 | 0.00 | 0.00 | 25 | 995.7 |
| 20260504201000 | 17 | 115 | 8.0 | 24.1 | 0.00 | 0.00 | 0.00 | 26 | 995.9 |
| 20260504200502 | 17 | 60 | 37.0 | 40.2 | 0.00 | 0.00 | 0.00 | 25 | 995.7 |
| 20260504200001 | 17 | 82 | 12.9 | 38.6 | 0.00 | 0.00 | 0.00 | 25 | 995.8 |
| 20260504195502 | 17 | 25 | 6.4 | 49.9 | 0.00 | 0.00 | 0.00 | 24 | 995.5 |
| 20260504195000 | 17 | 17 | 30.6 | 49.9 | 0.00 | 0.00 | 0.00 | 26 | 996.0 |
| 20260504194500 | 18 | 38 | 9.7 | 46.7 | 0.00 | 0.00 | 0.00 | 24 | 995.3 |
| 20260504194015 | 17 | 320 | 37.0 | 54.7 | 0.00 | 0.00 | 0.00 | 26 | 996.0 |
| 20260504193500 | 17 | 340 | 29.0 | 43.5 | 0.00 | 0.00 | 0.00 | 27 | 995.6 |
| 20260504193000 | 17 | 336 | 32.2 | 43.5 | 0.00 | 0.00 | 0.00 | 23 | 995.5 |
| 20260504192500 | 17 | 8 | 22.5 | 38.6 | 0.00 | 0.00 | 0.00 | 23 | 995.8 |
| 20260504192000 | 17 | 355 | 32.2 | 33.8 | 0.00 | 0.00 | 0.00 | 23 | 995.4 |
| 20260504191500 | 17 | 336 | 8.0 | 16.1 | 0.00 | 0.00 | 0.00 | 23 | 995.4 |
| 20260504191000 | 17 | 11 | 1.6 | 11.3 | 0.00 | 0.00 | 0.00 | 22 | 995.2 |
| 20260504190500 | 17 | 337 | 14.5 | 22.5 | 0.00 | 0.00 | 0.00 | 21 | 995.3 |
| 20260504190000 | 18 | 31 | 16.1 | 25.7 | 0.00 | 0.00 | 0.00 | 21 | 995.1 |
| 20260504185502 | 18 | 36 | 12.9 | 17.7 | 0.00 | 0.00 | 0.00 | 21 | 994.7 |
| 20260504185015 | 18 | 81 | 6.4 | 17.7 | 0.00 | 0.00 | 0.00 | 21 | 994.6 |
| 20260504184502 | 20 | 354 | 16.1 | 25.7 | 0.00 | 0.00 | 0.00 | 19 | 993.6 |
| 20260504184000 | 18 | 116 | 3.2 | 12.9 | 0.00 | 0.00 | 0.00 | 20 | 994.5 |
| 20260504183515 | 18 | 163 | 6.4 | 12.9 | 0.00 | 0.00 | 0.00 | 21 | 994.6 |
| 20260504183002 | 18 | 286 | 11.3 | 20.9 | 0.00 | 0.00 | 0.00 | 22 | 995.3 |
| 20260504182515 | 18 | 300 | 16.1 | 29.0 | 0.00 | 0.00 | 0.00 | 21 | 995.3 |
| 20260504182001 | 18 | 308 | 11.3 | 20.9 | 0.00 | 0.00 | 0.00 | 21 | 994.6 |
| 20260504181500 | 18 | 299 | 9.7 | 12.9 | 0.00 | 0.00 | 0.00 | 22 | 995.4 |
| 20260504181002 | 18 | 4 | 12.9 | 19.3 | 0.00 | 0.00 | 0.00 | 21 | 994.7 |
| 20260504180500 | 18 | 134 | 14.5 | 25.7 | 0.00 | 0.00 | 0.00 | 20 | 995.1 |
| 20260504180000 | 18 | 267 | 3.2 | 6.4 | 0.00 | 0.00 | 0.00 | 21 | 995.5 |
| 20260504175500 | 18 | 268 | 6.4 | 20.9 | 0.00 | 0.00 | 0.00 | 21 | 995.4 |
| 20260504175000 | 18 | 294 | 11.3 | 30.6 | 0.00 | 0.00 | 0.00 | 20 | 995.3 |
| 20260504174516 | 18 | 254 | 14.5 | 30.6 | 0.00 | 0.00 | 0.00 | 22 | 995.5 |
| 20260504174000 | 19 | 345 | 16.1 | 25.7 | 0.00 | 0.00 | 0.00 | 21 | 994.8 |
| 20260504173500 | 18 | 197 | 6.4 | 14.5 | 0.00 | 0.00 | 0.00 | 21 | 995.8 |
| 20260504173000 | 18 | 139 | 4.8 | 14.5 | 0.00 | 0.00 | 0.00 | 22 | 995.9 |
| 20260504172515 | 18 | 288 | 17.7 | 32.2 | 0.00 | 0.00 | 0.00 | 22 | 995.7 |
| 20260504172000 | 17 | 342 | 12.9 | 19.3 | 0.00 | 0.00 | 0.00 | 22 | 996.3 |
| 20260504171500 | 17 | 325 | 9.7 | 29.0 | 0.00 | 0.00 | 0.00 | 22 | 996.9 |
| 20260504171001 | 17 | 300 | 19.3 | 37.0 | 0.00 | 0.00 | 0.00 | 22 | 996.6 |
| 20260504170517 | 18 | 304 | 11.3 | 37.0 | 0.00 | 0.00 | 0.00 | 22 | 995.8 |
| 20260504151003 | 16 | 283 | 25.7 | 33.8 | 0.00 | 0.00 | 0.00 | 25 | 998.5 |
| 20260504150500 | 16 | 287 | 32.2 | 37.0 | 0.00 | 0.00 | 0.00 | 25 | 998.6 |
| 20260504141000 | 14 | 177 | 4.8 | 11.3 | 0.00 | 0.00 | 0.00 | 31 | 999.8 |
| 20260504140500 | 13 | 173 | 4.8 | 9.7 | 0.00 | 0.00 | 0.00 | 34 | 1001.1 |
| 20260504130515 | 9 | 164 | 14.5 | 19.3 | 0.00 | 0.00 | 0.00 | 42 | 1004.3 |
| 20260504110515 | 8 | 125 | 12.9 | 16.1 | 0.00 | 0.00 | 0.00 | 41 | 1004.8 |
| 20260504100500 | 7 | 121 | 11.3 | 14.5 | 0.00 | 0.00 | 0.00 | 44 | 1005.4 |
| 20260504082000 | 6 | 155 | 1.6 | 6.4 | 0.00 | 0.00 | 0.00 | 58 | 1007.8 |
| 20260504081500 | 6 | 237 | 8.0 | 9.7 | 0.00 | 0.00 | 0.00 | 57 | 1007.8 |
| 20260504081015 | 8 | 331 | 17.7 | 20.9 | 0.00 | 0.00 | 0.00 | 49 | 1006.0 |
| 20260504080501 | 8 | 139 | 8.0 | 11.3 | 0.00 | 0.00 | 0.00 | 46 | 1005.7 |